createdAt,value
2017-09-04T00:01:06.834Z,0
2017-09-04T00:02:15.675Z,0
2017-09-04T00:03:24.519Z,0
2017-09-04T00:04:33.511Z,0
2017-09-04T00:05:42.362Z,0
2017-09-04T00:06:51.203Z,0
2017-09-04T00:08:00.047Z,0
2017-09-04T00:09:09.224Z,0
2017-09-04T00:10:18.219Z,0
2017-09-04T00:11:27.062Z,0
2017-09-04T00:12:36.234Z,0
2017-09-04T00:13:45.076Z,0
2017-09-04T00:14:53.918Z,0
2017-09-04T00:16:02.863Z,0
2017-09-04T00:17:11.705Z,0
2017-09-04T00:18:20.550Z,0
2017-09-04T00:19:29.391Z,0
2017-09-04T00:20:38.233Z,0
2017-09-04T00:21:47.075Z,0
2017-09-04T00:22:55.917Z,0
2017-09-04T00:24:04.759Z,0
2017-09-04T00:25:13.601Z,0
2017-09-04T00:26:22.444Z,0
2017-09-04T00:27:31.440Z,0
2017-09-04T00:28:40.282Z,0
2017-09-04T00:29:49.131Z,0
2017-09-04T00:30:58.302Z,0
2017-09-04T00:32:07.143Z,0
2017-09-04T00:33:16.322Z,0
2017-09-04T00:34:25.165Z,0
2017-09-04T00:35:34.010Z,0
2017-09-04T00:36:42.852Z,0
2017-09-04T00:37:51.693Z,0
2017-09-04T00:39:00.637Z,0
2017-09-04T00:40:09.477Z,0
2017-09-04T00:41:18.319Z,0
2017-09-04T00:42:27.163Z,0
2017-09-04T00:43:36.006Z,0
2017-09-04T00:44:44.850Z,0
2017-09-04T00:45:53.690Z,0
2017-09-04T00:47:02.532Z,0
2017-09-04T00:48:11.373Z,0
2017-09-04T00:49:20.212Z,0
2017-09-04T00:50:29.156Z,0
2017-09-04T00:51:38.002Z,0
2017-09-04T00:52:46.843Z,0
2017-09-04T00:53:55.687Z,0
2017-09-04T00:55:04.527Z,0
2017-09-04T00:56:13.956Z,0
2017-09-04T00:57:22.799Z,0
2017-09-04T00:58:31.977Z,0
2017-09-04T00:59:40.822Z,0
2017-09-04T01:00:49.662Z,0
2017-09-04T01:01:58.604Z,0
2017-09-04T01:03:07.448Z,0
2017-09-04T01:04:16.289Z,0
2017-09-04T01:05:25.130Z,0
2017-09-04T01:06:33.972Z,0
2017-09-04T01:07:42.813Z,0
2017-09-04T01:08:51.652Z,0
2017-09-04T01:10:00.493Z,0
2017-09-04T01:11:09.334Z,0
2017-09-04T01:12:18.174Z,0
2017-09-04T01:13:27.067Z,0
2017-09-04T01:14:35.910Z,0
2017-09-04T01:15:44.752Z,0
2017-09-04T01:16:53.594Z,0
2017-09-04T01:18:02.434Z,0
2017-09-04T01:19:11.425Z,0
2017-09-04T01:20:20.267Z,0
2017-09-04T01:21:29.106Z,0
2017-09-04T01:22:37.951Z,0
2017-09-04T01:23:46.995Z,0
2017-09-04T01:24:55.886Z,0
2017-09-04T01:26:04.726Z,0
2017-09-04T01:27:13.565Z,0
2017-09-04T01:28:22.413Z,0
2017-09-04T01:29:31.583Z,0
2017-09-04T01:30:40.474Z,0
2017-09-04T01:31:49.318Z,0
2017-09-04T01:32:58.156Z,0
2017-09-04T01:34:07.002Z,0
2017-09-04T01:35:15.849Z,0
2017-09-04T01:36:24.688Z,0
2017-09-04T01:37:33.530Z,0
2017-09-04T01:38:42.372Z,0
2017-09-04T01:39:51.215Z,0
2017-09-04T01:41:00.059Z,0
2017-09-04T01:42:09.052Z,0
2017-09-04T01:43:17.895Z,0
2017-09-04T01:44:26.739Z,0
2017-09-04T01:45:35.581Z,0
2017-09-04T01:46:44.430Z,0
2017-09-04T01:47:53.422Z,0
2017-09-04T01:49:02.605Z,0
2017-09-04T01:50:11.451Z,0
2017-09-04T01:51:20.293Z,0
2017-09-04T01:52:29.468Z,0
2017-09-04T01:53:38.312Z,0
2017-09-04T01:54:47.152Z,0
2017-09-04T01:55:55.996Z,0
2017-09-04T01:57:04.835Z,0
2017-09-04T01:58:13.680Z,0
2017-09-04T01:59:22.674Z,0
2017-09-04T02:00:31.852Z,0
2017-09-04T02:01:40.697Z,0
2017-09-04T02:02:49.539Z,0
2017-09-04T02:03:58.383Z,0
2017-09-04T02:05:07.223Z,0
2017-09-04T02:06:16.066Z,0
2017-09-04T02:07:24.910Z,0
2017-09-04T02:08:33.751Z,0
2017-09-04T02:09:42.592Z,0
2017-09-04T02:10:51.584Z,0
2017-09-04T02:12:00.760Z,0
2017-09-04T02:13:09.603Z,0
2017-09-04T02:14:18.479Z,0
2017-09-04T02:15:27.285Z,0
2017-09-04T02:16:36.277Z,0
2017-09-04T02:17:45.128Z,0
2017-09-04T02:18:53.962Z,0
2017-09-04T02:20:02.813Z,0
2017-09-04T02:21:11.991Z,0
2017-09-04T02:22:20.983Z,0
2017-09-04T02:23:29.828Z,0
2017-09-04T02:24:38.667Z,0
2017-09-04T02:25:47.512Z,0
2017-09-04T02:26:56.354Z,0
2017-09-04T02:28:05.298Z,0
2017-09-04T02:29:14.138Z,0
2017-09-04T02:30:22.982Z,0
2017-09-04T02:31:31.822Z,0
2017-09-04T02:32:40.663Z,0
2017-09-04T02:33:49.755Z,0
2017-09-04T02:34:58.595Z,0
2017-09-04T02:36:07.437Z,0
2017-09-04T02:37:16.275Z,0
2017-09-04T02:38:25.117Z,0
2017-09-04T02:39:34.107Z,0
2017-09-04T02:40:42.946Z,0
2017-09-04T02:41:51.786Z,0
2017-09-04T02:43:00.630Z,0
2017-09-04T02:44:09.473Z,0
2017-09-04T02:45:18.363Z,0
2017-09-04T02:46:27.205Z,0
2017-09-04T02:47:36.046Z,0
2017-09-04T02:48:44.883Z,0
2017-09-04T02:49:54.059Z,0
2017-09-04T02:51:03.331Z,0
2017-09-04T02:52:12.174Z,0
2017-09-04T02:53:21.015Z,0
2017-09-04T02:54:29.856Z,0
2017-09-04T02:55:38.698Z,0
2017-09-04T02:56:47.638Z,0
2017-09-04T02:57:56.480Z,0
2017-09-04T02:59:05.320Z,0
2017-09-04T03:00:14.161Z,0
2017-09-04T03:01:23.001Z,0
2017-09-04T03:02:32.092Z,0
2017-09-04T03:03:40.935Z,0
2017-09-04T03:04:49.779Z,0
2017-09-04T03:05:58.620Z,0
2017-09-04T03:07:07.480Z,0
2017-09-04T03:08:16.452Z,0
2017-09-04T03:09:25.293Z,0
2017-09-04T03:10:34.132Z,0
2017-09-04T03:11:42.973Z,0
2017-09-04T03:12:51.816Z,0
2017-09-04T03:14:00.660Z,0
2017-09-04T03:15:09.502Z,0
2017-09-04T03:16:18.344Z,0
2017-09-04T03:17:27.184Z,0
2017-09-04T03:18:36.025Z,0
2017-09-04T03:19:45.017Z,0
2017-09-04T03:20:53.858Z,0
2017-09-04T03:22:02.699Z,0
2017-09-04T03:23:11.541Z,0
2017-09-04T03:24:20.715Z,0
2017-09-04T03:25:29.708Z,0
2017-09-04T03:26:38.547Z,0
2017-09-04T03:27:47.386Z,0
2017-09-04T03:28:56.227Z,0
2017-09-04T03:30:05.070Z,0
2017-09-04T03:31:14.160Z,0
2017-09-04T03:32:23.339Z,0
2017-09-04T03:33:32.178Z,0
2017-09-04T03:34:41.023Z,0
2017-09-04T03:35:49.867Z,0
2017-09-04T03:36:58.858Z,0
2017-09-04T03:38:07.703Z,0
2017-09-04T03:39:16.544Z,0
2017-09-04T03:40:25.383Z,0
2017-09-04T03:41:34.224Z,0
2017-09-04T03:42:43.319Z,0
2017-09-04T03:43:52.157Z,0
2017-09-04T03:45:01.001Z,0
2017-09-04T03:46:09.840Z,0
2017-09-04T03:47:18.683Z,0
2017-09-04T03:48:27.585Z,0
2017-09-04T03:49:36.408Z,0
2017-09-04T03:50:45.250Z,0
2017-09-04T03:51:54.092Z,0
2017-09-04T03:53:02.940Z,0
2017-09-04T03:54:11.927Z,0
2017-09-04T03:55:20.771Z,0
2017-09-04T03:56:29.609Z,0
2017-09-04T03:57:38.452Z,0
2017-09-04T03:58:47.289Z,0
2017-09-04T03:59:56.330Z,0
2017-09-04T04:01:05.169Z,0
2017-09-04T04:02:14.011Z,0
2017-09-04T04:03:22.853Z,0
2017-09-04T04:04:31.695Z,0
2017-09-04T04:05:40.734Z,0
2017-09-04T04:06:49.572Z,0
2017-09-04T04:07:58.782Z,0
2017-09-04T04:09:07.624Z,0
2017-09-04T04:10:16.461Z,0
2017-09-04T04:11:25.454Z,0
2017-09-04T04:12:34.293Z,0
2017-09-04T04:13:43.135Z,0
2017-09-04T04:14:51.977Z,0
2017-09-04T04:16:00.818Z,0
2017-09-04T04:17:09.761Z,0
2017-09-04T04:18:18.600Z,0
2017-09-04T04:19:27.442Z,0
2017-09-04T04:20:36.281Z,0
2017-09-04T04:21:45.124Z,0
2017-09-04T04:22:54.116Z,0
2017-09-04T04:24:02.962Z,0
2017-09-04T04:25:11.796Z,0
2017-09-04T04:26:20.638Z,0
2017-09-04T04:27:29.480Z,0
2017-09-04T04:28:38.470Z,0
2017-09-04T04:29:47.308Z,0
2017-09-04T04:30:56.150Z,0
2017-09-04T04:32:04.991Z,0
2017-09-04T04:33:13.831Z,0
2017-09-04T04:34:22.672Z,0
2017-09-04T04:35:31.513Z,0
2017-09-04T04:36:40.355Z,5
2017-09-04T04:37:49.199Z,5
2017-09-04T04:38:58.036Z,5
2017-09-04T04:40:06.933Z,5
2017-09-04T04:41:15.773Z,5
2017-09-04T04:42:24.611Z,5
2017-09-04T04:43:33.784Z,10
2017-09-04T04:44:42.625Z,10
2017-09-04T04:45:51.516Z,10
2017-09-04T04:47:00.356Z,10
2017-09-04T04:48:09.198Z,15
2017-09-04T04:49:18.044Z,15
2017-09-04T04:50:26.883Z,15
2017-09-04T04:51:35.774Z,15
2017-09-04T04:52:44.618Z,20
2017-09-04T04:53:53.457Z,20
2017-09-04T04:55:02.300Z,20
2017-09-04T04:56:11.140Z,20
2017-09-04T04:57:20.180Z,25
2017-09-04T04:58:29.022Z,25
2017-09-04T04:59:37.864Z,25
2017-09-04T05:00:46.707Z,25
2017-09-04T05:01:55.547Z,30
2017-09-04T05:03:04.873Z,30
2017-09-04T05:04:13.717Z,30
2017-09-04T05:05:22.560Z,35
2017-09-04T05:06:31.402Z,35
2017-09-04T05:07:40.241Z,35
2017-09-04T05:08:49.334Z,40
2017-09-04T05:09:58.174Z,40
2017-09-04T05:11:07.018Z,40
2017-09-04T05:12:15.861Z,45
2017-09-04T05:13:24.702Z,45
2017-09-04T05:14:33.645Z,45
2017-09-04T05:15:42.488Z,50
2017-09-04T05:16:51.328Z,50
2017-09-04T05:18:00.173Z,50
2017-09-04T05:19:09.014Z,55
2017-09-04T05:20:18.007Z,55
2017-09-04T05:21:26.851Z,55
2017-09-04T05:22:35.691Z,60
2017-09-04T05:23:44.935Z,60
2017-09-04T05:24:53.779Z,60
2017-09-04T05:26:02.773Z,65
2017-09-04T05:27:11.617Z,65
2017-09-04T05:28:20.461Z,65
2017-09-04T05:29:29.306Z,70
2017-09-04T05:30:38.149Z,70
2017-09-04T05:31:47.144Z,70
2017-09-04T05:32:56.351Z,75
2017-09-04T05:34:05.192Z,75
2017-09-04T05:35:14.036Z,75
2017-09-04T05:36:22.882Z,80
2017-09-04T05:37:31.723Z,80
2017-09-04T05:38:40.566Z,80
2017-09-04T05:39:49.408Z,80
2017-09-04T05:40:58.581Z,85
2017-09-04T05:42:07.425Z,85
2017-09-04T05:43:16.273Z,85
2017-09-04T05:44:25.118Z,85
2017-09-04T05:45:33.964Z,90
2017-09-04T05:46:42.808Z,90
2017-09-04T05:47:51.651Z,90
2017-09-04T05:49:00.498Z,90
2017-09-04T05:50:09.341Z,95
2017-09-04T05:51:18.183Z,95
2017-09-04T05:52:27.028Z,95
2017-09-04T05:53:35.877Z,95
2017-09-04T05:54:45.063Z,100
2017-09-04T05:55:53.905Z,100
2017-09-04T05:57:02.750Z,100
2017-09-04T05:58:11.593Z,100
2017-09-04T05:59:20.439Z,105
2017-09-04T06:00:29.278Z,105
2017-09-04T06:01:38.123Z,105
2017-09-04T06:02:46.968Z,105
2017-09-04T06:03:55.811Z,105
2017-09-04T06:05:04.654Z,105
2017-09-04T06:06:13.497Z,105
2017-09-04T06:07:22.677Z,105
2017-09-04T06:08:32.054Z,105
2017-09-04T06:09:41.228Z,110
2017-09-04T06:10:50.103Z,115
2017-09-04T06:11:58.949Z,115
2017-09-04T06:13:07.789Z,115
2017-09-04T06:14:16.790Z,115
2017-09-04T06:15:25.635Z,115
2017-09-04T06:16:34.481Z,115
2017-09-04T06:17:43.654Z,115
2017-09-04T06:18:52.497Z,115
2017-09-04T06:20:01.492Z,115
2017-09-04T06:21:10.335Z,120
2017-09-04T06:22:19.175Z,120
2017-09-04T06:23:28.020Z,120
2017-09-04T06:24:36.865Z,120
2017-09-04T06:25:45.907Z,120
2017-09-04T06:26:54.750Z,125
2017-09-04T06:28:03.593Z,125
2017-09-04T06:29:12.438Z,125
2017-09-04T06:30:21.292Z,125
2017-09-04T06:31:30.474Z,125
2017-09-04T06:32:39.318Z,130
2017-09-04T06:33:48.161Z,130
2017-09-04T06:34:57.005Z,130
2017-09-04T06:36:05.849Z,130
2017-09-04T06:37:14.892Z,130
2017-09-04T06:38:23.734Z,130
2017-09-04T06:39:32.577Z,135
2017-09-04T06:40:41.440Z,135
2017-09-04T06:41:50.284Z,135
2017-09-04T06:42:59.329Z,135
2017-09-04T06:44:08.175Z,135
2017-09-04T06:45:17.018Z,135
2017-09-04T06:46:25.861Z,140
2017-09-04T06:47:34.705Z,140
2017-09-04T06:48:43.600Z,140
2017-09-04T06:49:52.442Z,140
2017-09-04T06:51:01.287Z,140
2017-09-04T06:52:10.470Z,140
2017-09-04T06:53:19.315Z,145
2017-09-04T06:54:28.309Z,145
2017-09-04T06:55:37.157Z,145
2017-09-04T06:56:46.001Z,145
2017-09-04T06:57:54.846Z,145
2017-09-04T06:59:03.693Z,145
2017-09-04T07:00:12.738Z,145
2017-09-04T07:01:21.583Z,150
2017-09-04T07:02:30.428Z,150
2017-09-04T07:03:39.274Z,150
2017-09-04T07:04:48.118Z,150
2017-09-04T07:05:57.067Z,150
2017-09-04T07:07:05.913Z,150
2017-09-04T07:08:14.758Z,150
2017-09-04T07:09:23.601Z,155
2017-09-04T07:10:32.448Z,155
2017-09-04T07:11:41.393Z,155
2017-09-04T07:12:50.238Z,155
2017-09-04T07:13:59.085Z,155
2017-09-04T07:15:07.930Z,155
2017-09-04T07:16:16.777Z,155
2017-09-04T07:17:25.715Z,155
2017-09-04T07:18:34.559Z,160
2017-09-04T07:19:43.406Z,160
2017-09-04T07:20:52.253Z,160
2017-09-04T07:22:01.098Z,160
2017-09-04T07:23:09.946Z,160
2017-09-04T07:24:18.790Z,160
2017-09-04T07:25:27.633Z,160
2017-09-04T07:26:36.478Z,165
2017-09-04T07:27:45.322Z,165
2017-09-04T07:28:54.419Z,165
2017-09-04T07:30:03.264Z,165
2017-09-04T07:31:12.113Z,165
2017-09-04T07:32:20.955Z,165
2017-09-04T07:33:29.800Z,165
2017-09-04T07:34:38.794Z,165
2017-09-04T07:35:47.646Z,165
2017-09-04T07:36:56.487Z,170
2017-09-04T07:38:05.334Z,170
2017-09-04T07:39:14.180Z,170
2017-09-04T07:40:23.025Z,170
2017-09-04T07:41:31.869Z,170
2017-09-04T07:42:40.713Z,170
2017-09-04T07:43:49.556Z,170
2017-09-04T07:44:58.404Z,170
2017-09-04T07:46:07.398Z,170
2017-09-04T07:47:16.242Z,170
2017-09-04T07:48:25.088Z,175
2017-09-04T07:49:34.263Z,175
2017-09-04T07:50:43.108Z,175
2017-09-04T07:51:52.436Z,175
2017-09-04T07:53:01.282Z,175
2017-09-04T07:54:10.128Z,175
2017-09-04T07:55:18.974Z,175
2017-09-04T07:56:27.826Z,175
2017-09-04T07:57:36.976Z,175
2017-09-04T07:58:45.824Z,175
2017-09-04T07:59:54.665Z,180
2017-09-04T08:01:03.511Z,180
2017-09-04T08:02:12.355Z,180
2017-09-04T08:03:21.252Z,180
2017-09-04T08:04:30.104Z,180
2017-09-04T08:05:38.960Z,180
2017-09-04T08:06:47.797Z,180
2017-09-04T08:07:56.643Z,180
2017-09-04T08:09:05.637Z,180
2017-09-04T08:10:14.815Z,180
2017-09-04T08:11:23.660Z,185
2017-09-04T08:12:32.510Z,185
2017-09-04T08:13:41.353Z,185
2017-09-04T08:14:50.350Z,185
2017-09-04T08:15:59.196Z,185
2017-09-04T08:17:08.037Z,180
2017-09-04T08:18:17.216Z,180
2017-09-04T08:19:26.059Z,180
2017-09-04T08:20:35.054Z,180
2017-09-04T08:21:43.900Z,185
2017-09-04T08:22:52.747Z,185
2017-09-04T08:24:01.592Z,185
2017-09-04T08:25:10.433Z,185
2017-09-04T08:26:19.280Z,185
2017-09-04T08:27:28.127Z,185
2017-09-04T08:28:36.976Z,185
2017-09-04T08:29:45.820Z,185
2017-09-04T08:30:54.666Z,190
2017-09-04T08:32:03.661Z,190
2017-09-04T08:33:12.505Z,190
2017-09-04T08:34:21.353Z,190
2017-09-04T08:35:30.198Z,190
2017-09-04T08:36:39.048Z,190
2017-09-04T08:37:48.044Z,195
2017-09-04T08:38:56.889Z,195
2017-09-04T08:40:05.734Z,195
2017-09-04T08:41:14.581Z,195
2017-09-04T08:42:23.428Z,195
2017-09-04T08:43:32.425Z,195
2017-09-04T08:44:41.272Z,195
2017-09-04T08:45:50.118Z,200
2017-09-04T08:46:58.963Z,200
2017-09-04T08:48:07.810Z,200
2017-09-04T08:49:17.088Z,200
2017-09-04T08:50:25.936Z,200
2017-09-04T08:51:34.784Z,200
2017-09-04T08:52:43.632Z,200
2017-09-04T08:53:52.477Z,205
2017-09-04T08:55:01.475Z,205
2017-09-04T08:56:10.324Z,205
2017-09-04T08:57:19.172Z,205
2017-09-04T08:58:28.017Z,205
2017-09-04T08:59:36.862Z,210
2017-09-04T09:00:45.909Z,210
2017-09-04T09:01:55.087Z,210
2017-09-04T09:03:03.935Z,210
2017-09-04T09:04:12.783Z,210
2017-09-04T09:05:21.654Z,210
2017-09-04T09:06:30.677Z,215
2017-09-04T09:07:39.526Z,215
2017-09-04T09:08:48.700Z,215
2017-09-04T09:09:57.548Z,215
2017-09-04T09:11:06.396Z,215
2017-09-04T09:12:15.403Z,215
2017-09-04T09:13:24.238Z,215
2017-09-04T09:14:33.087Z,220
2017-09-04T09:15:41.933Z,220
2017-09-04T09:16:50.779Z,220
2017-09-04T09:17:59.726Z,220
2017-09-04T09:19:08.572Z,225
2017-09-04T09:20:17.417Z,225
2017-09-04T09:21:26.260Z,225
2017-09-04T09:22:35.110Z,225
2017-09-04T09:23:44.109Z,225
2017-09-04T09:24:52.960Z,230
2017-09-04T09:26:01.804Z,230
2017-09-04T09:27:10.648Z,230
2017-09-04T09:28:19.493Z,230
2017-09-04T09:29:28.487Z,235
2017-09-04T09:30:37.332Z,235
2017-09-04T09:31:46.179Z,235
2017-09-04T09:32:55.024Z,235
2017-09-04T09:34:03.871Z,240
2017-09-04T09:35:12.869Z,240
2017-09-04T09:36:21.716Z,240
2017-09-04T09:37:30.563Z,240
2017-09-04T09:38:39.410Z,240
2017-09-04T09:39:48.256Z,245
2017-09-04T09:40:57.251Z,245
2017-09-04T09:42:06.097Z,245
2017-09-04T09:43:14.944Z,245
2017-09-04T09:44:23.793Z,245
2017-09-04T09:45:32.640Z,245
2017-09-04T09:46:41.536Z,250
2017-09-04T09:47:50.383Z,250
2017-09-04T09:48:59.229Z,250
2017-09-04T09:50:08.079Z,250
2017-09-04T09:51:16.925Z,250
2017-09-04T09:52:25.825Z,255
2017-09-04T09:53:35.004Z,255
2017-09-04T09:54:43.855Z,260
2017-09-04T09:55:52.701Z,260
2017-09-04T09:57:01.550Z,265
2017-09-04T09:58:10.883Z,265
2017-09-04T09:59:19.732Z,270
2017-09-04T10:00:28.578Z,275
2017-09-04T10:01:37.425Z,270
2017-09-04T10:02:46.273Z,275
2017-09-04T10:03:55.169Z,275
2017-09-04T10:05:04.021Z,275
2017-09-04T10:06:12.870Z,275
2017-09-04T10:07:21.719Z,275
2017-09-04T10:08:30.568Z,275
2017-09-04T10:09:39.469Z,280
2017-09-04T10:10:48.315Z,280
2017-09-04T10:11:57.165Z,280
2017-09-04T10:13:06.014Z,280
2017-09-04T10:14:14.860Z,280
2017-09-04T10:15:23.860Z,285
2017-09-04T10:16:32.707Z,285
2017-09-04T10:17:41.557Z,290
2017-09-04T10:18:50.406Z,295
2017-09-04T10:19:59.253Z,305
2017-09-04T10:21:08.351Z,305
2017-09-04T10:22:17.201Z,310
2017-09-04T10:23:26.051Z,300
2017-09-04T10:24:34.902Z,305
2017-09-04T10:25:43.749Z,310
2017-09-04T10:26:52.749Z,320
2017-09-04T10:28:01.598Z,325
2017-09-04T10:29:10.779Z,335
2017-09-04T10:30:19.630Z,345
2017-09-04T10:31:28.480Z,350
2017-09-04T10:32:37.377Z,345
2017-09-04T10:33:46.225Z,320
2017-09-04T10:34:55.074Z,295
2017-09-04T10:36:03.918Z,285
2017-09-04T10:37:12.766Z,270
2017-09-04T10:38:21.815Z,280
2017-09-04T10:39:30.662Z,300
2017-09-04T10:40:39.510Z,315
2017-09-04T10:41:48.359Z,320
2017-09-04T10:42:57.204Z,310
2017-09-04T10:44:06.503Z,315
2017-09-04T10:45:15.350Z,325
2017-09-04T10:46:24.198Z,335
2017-09-04T10:47:33.045Z,340
2017-09-04T10:48:41.890Z,335
2017-09-04T10:49:50.889Z,325
2017-09-04T10:50:59.738Z,330
2017-09-04T10:52:08.586Z,340
2017-09-04T10:53:17.436Z,350
2017-09-04T10:54:26.287Z,350
2017-09-04T10:55:35.287Z,355
2017-09-04T10:56:44.134Z,340
2017-09-04T10:57:52.984Z,335
2017-09-04T10:59:01.834Z,335
2017-09-04T11:00:10.683Z,335
2017-09-04T11:01:19.582Z,335
2017-09-04T11:02:28.430Z,345
2017-09-04T11:03:37.278Z,355
2017-09-04T11:04:46.128Z,380
2017-09-04T11:05:54.977Z,370
2017-09-04T11:07:04.076Z,350
2017-09-04T11:08:12.926Z,355
2017-09-04T11:09:21.774Z,370
2017-09-04T11:10:30.624Z,385
2017-09-04T11:11:39.471Z,395
2017-09-04T11:12:48.470Z,430
2017-09-04T11:13:57.318Z,440
2017-09-04T11:15:06.168Z,445
2017-09-04T11:16:15.019Z,430
2017-09-04T11:17:23.865Z,440
2017-09-04T11:18:32.813Z,440
2017-09-04T11:19:41.993Z,465
2017-09-04T11:20:50.845Z,455
2017-09-04T11:21:59.693Z,455
2017-09-04T11:23:08.540Z,440
2017-09-04T11:24:17.439Z,395
2017-09-04T11:25:26.290Z,410
2017-09-04T11:26:35.802Z,425
2017-09-04T11:27:44.651Z,440
2017-09-04T11:28:53.500Z,440
2017-09-04T11:30:02.348Z,455
2017-09-04T11:31:11.197Z,480
2017-09-04T11:32:20.047Z,475
2017-09-04T11:33:28.897Z,460
2017-09-04T11:34:37.745Z,465
2017-09-04T11:35:46.742Z,485
2017-09-04T11:36:55.923Z,490
2017-09-04T11:38:04.774Z,480
2017-09-04T11:39:13.954Z,470
2017-09-04T11:40:22.805Z,470
2017-09-04T11:41:31.905Z,485
2017-09-04T11:42:40.757Z,495
2017-09-04T11:43:49.608Z,500
2017-09-04T11:44:58.455Z,510
2017-09-04T11:46:07.637Z,520
2017-09-04T11:47:16.586Z,520
2017-09-04T11:48:25.439Z,525
2017-09-04T11:49:34.289Z,530
2017-09-04T11:50:43.139Z,530
2017-09-04T11:51:51.987Z,530
2017-09-04T11:53:00.988Z,545
2017-09-04T11:54:09.839Z,550
2017-09-04T11:55:18.689Z,1410
2017-09-04T11:56:27.875Z,2030
2017-09-04T11:57:36.726Z,1850
2017-09-04T11:58:46.057Z,1820
2017-09-04T11:59:54.910Z,2100
2017-09-04T12:01:03.759Z,1470
2017-09-04T12:02:12.711Z,785
2017-09-04T12:03:21.946Z,690
2017-09-04T12:04:30.900Z,600
2017-09-04T12:05:39.755Z,765
2017-09-04T12:06:48.606Z,780
2017-09-04T12:07:57.463Z,1155
2017-09-04T12:09:06.348Z,1030
2017-09-04T12:10:15.713Z,890
2017-09-04T12:11:24.569Z,825
2017-09-04T12:12:33.423Z,785
2017-09-04T12:13:42.306Z,1580
2017-09-04T12:14:51.249Z,1600
2017-09-04T12:16:00.258Z,625
2017-09-04T12:17:09.113Z,1210
2017-09-04T12:18:17.965Z,1430
2017-09-04T12:19:26.815Z,930
2017-09-04T12:20:35.666Z,770
2017-09-04T12:21:44.670Z,1175
2017-09-04T12:22:53.520Z,1375
2017-09-04T12:24:02.574Z,785
2017-09-04T12:25:11.425Z,805
2017-09-04T12:26:20.274Z,745
2017-09-04T12:27:29.326Z,805
2017-09-04T12:28:38.180Z,975
2017-09-04T12:29:47.036Z,895
2017-09-04T12:30:55.891Z,880
2017-09-04T12:32:04.745Z,770
2017-09-04T12:33:13.851Z,810
2017-09-04T12:34:22.706Z,735
2017-09-04T12:35:31.747Z,740
2017-09-04T12:36:40.876Z,865
2017-09-04T12:37:50.067Z,600
2017-09-04T12:38:59.027Z,600
2017-09-04T12:40:07.887Z,800
2017-09-04T12:41:16.818Z,760
2017-09-04T12:42:25.700Z,1035
2017-09-04T12:43:34.556Z,1100
2017-09-04T12:44:43.460Z,1550
2017-09-04T12:45:52.317Z,1910
2017-09-04T12:47:01.167Z,1285
2017-09-04T12:48:10.021Z,1255
2017-09-04T12:49:18.873Z,835
2017-09-04T12:50:27.875Z,670
2017-09-04T12:51:36.729Z,725
2017-09-04T12:52:45.601Z,845
2017-09-04T12:53:54.463Z,680
2017-09-04T12:55:03.318Z,695
2017-09-04T12:56:12.323Z,795
2017-09-04T12:57:21.174Z,720
2017-09-04T12:58:30.024Z,660
2017-09-04T12:59:38.876Z,675
2017-09-04T13:00:47.727Z,660
2017-09-04T13:01:56.729Z,685
2017-09-04T13:03:05.584Z,715
2017-09-04T13:04:14.688Z,735
2017-09-04T13:05:23.554Z,830
2017-09-04T13:06:32.405Z,865
2017-09-04T13:07:41.512Z,735
2017-09-04T13:08:50.375Z,720
2017-09-04T13:09:59.224Z,710
2017-09-04T13:11:08.077Z,735
2017-09-04T13:12:17.260Z,1000
2017-09-04T13:13:26.269Z,1135
2017-09-04T13:14:35.143Z,895
2017-09-04T13:15:44.010Z,1015
2017-09-04T13:16:52.865Z,920
2017-09-04T13:18:01.716Z,1195
2017-09-04T13:19:10.733Z,1170
2017-09-04T13:20:19.590Z,915
2017-09-04T13:21:28.702Z,755
2017-09-04T13:22:37.858Z,700
2017-09-04T13:23:46.717Z,715
2017-09-04T13:24:55.724Z,735
2017-09-04T13:26:04.988Z,735
2017-09-04T13:27:13.892Z,740
2017-09-04T13:28:22.750Z,835
2017-09-04T13:29:31.604Z,770
2017-09-04T13:30:40.839Z,820
2017-09-04T13:31:50.016Z,925
2017-09-04T13:32:58.890Z,820
2017-09-04T13:34:07.808Z,710
2017-09-04T13:35:16.655Z,695
2017-09-04T13:36:25.763Z,720
2017-09-04T13:37:34.706Z,720
2017-09-04T13:38:43.635Z,705
2017-09-04T13:39:52.494Z,770
2017-09-04T13:41:01.421Z,855
2017-09-04T13:42:10.672Z,850
2017-09-04T13:43:19.525Z,755
2017-09-04T13:44:28.385Z,1130
2017-09-04T13:45:37.245Z,1600
2017-09-04T13:46:46.101Z,1165
2017-09-04T13:47:55.011Z,820
2017-09-04T13:49:03.868Z,1000
2017-09-04T13:50:12.750Z,1200
2017-09-04T13:51:21.615Z,1660
2017-09-04T13:52:30.468Z,1185
2017-09-04T13:53:39.474Z,1145
2017-09-04T13:54:48.348Z,1165
2017-09-04T13:55:57.208Z,980
2017-09-04T13:57:06.066Z,1050
2017-09-04T13:58:14.927Z,1150
2017-09-04T13:59:23.936Z,970
2017-09-04T14:00:32.880Z,780
2017-09-04T14:01:41.753Z,875
2017-09-04T14:02:50.614Z,765
2017-09-04T14:03:59.468Z,890
2017-09-04T14:05:08.530Z,1460
2017-09-04T14:06:17.427Z,1765
2017-09-04T14:07:26.289Z,1865
2017-09-04T14:08:35.147Z,850
2017-09-04T14:09:44.010Z,1315
2017-09-04T14:10:53.012Z,540
2017-09-04T14:12:01.866Z,505
2017-09-04T14:13:10.722Z,490
2017-09-04T14:14:19.578Z,460
2017-09-04T14:15:28.444Z,470
2017-09-04T14:16:37.300Z,480
2017-09-04T14:17:46.159Z,515
2017-09-04T14:18:55.025Z,920
2017-09-04T14:20:03.921Z,1485
2017-09-04T14:21:12.776Z,715
2017-09-04T14:22:21.681Z,1065
2017-09-04T14:23:30.880Z,1910
2017-09-04T14:24:40.006Z,1910
2017-09-04T14:25:48.883Z,1890
2017-09-04T14:26:57.741Z,1135
2017-09-04T14:28:06.858Z,805
2017-09-04T14:29:15.717Z,1585
2017-09-04T14:30:24.574Z,725
2017-09-04T14:31:33.433Z,745
2017-09-04T14:32:42.318Z,585
2017-09-04T14:33:51.176Z,670
2017-09-04T14:35:00.034Z,570
2017-09-04T14:36:08.892Z,440
2017-09-04T14:37:17.749Z,495
2017-09-04T14:38:26.819Z,380
2017-09-04T14:39:35.680Z,440
2017-09-04T14:40:44.542Z,470
2017-09-04T14:41:53.398Z,505
2017-09-04T14:43:02.252Z,535
2017-09-04T14:44:11.219Z,495
2017-09-04T14:45:20.074Z,490
2017-09-04T14:46:28.932Z,490
2017-09-04T14:47:37.783Z,520
2017-09-04T14:48:46.688Z,845
2017-09-04T14:49:55.541Z,795
2017-09-04T14:51:04.438Z,1445
2017-09-04T14:52:13.328Z,1590
2017-09-04T14:53:22.184Z,1375
2017-09-04T14:54:31.040Z,1385
2017-09-04T14:55:40.312Z,1610
2017-09-04T14:56:49.225Z,1470
2017-09-04T14:57:58.080Z,1200
2017-09-04T14:59:07.085Z,1530
2017-09-04T15:00:15.950Z,1230
2017-09-04T15:01:24.813Z,1630
2017-09-04T15:02:33.684Z,1230
2017-09-04T15:03:42.546Z,1665
2017-09-04T15:04:51.404Z,1530
2017-09-04T15:06:00.261Z,1340
2017-09-04T15:07:09.117Z,1425
2017-09-04T15:08:17.975Z,1515
2017-09-04T15:09:26.833Z,1260
2017-09-04T15:10:35.693Z,1005
2017-09-04T15:11:44.552Z,1350
2017-09-04T15:12:53.409Z,1345
2017-09-04T15:14:02.269Z,1590
2017-09-04T15:15:11.130Z,1515
2017-09-04T15:16:20.652Z,1465
2017-09-04T15:17:29.511Z,1515
2017-09-04T15:18:38.368Z,1515
2017-09-04T15:19:47.228Z,1520
2017-09-04T15:20:56.089Z,1370
2017-09-04T15:22:04.947Z,1305
2017-09-04T15:23:13.806Z,1330
2017-09-04T15:24:22.667Z,1315
2017-09-04T15:25:31.528Z,1285
2017-09-04T15:26:40.387Z,1270
2017-09-04T15:27:49.246Z,1215
2017-09-04T15:28:58.441Z,1190
2017-09-04T15:30:07.451Z,1145
2017-09-04T15:31:16.309Z,1110
2017-09-04T15:32:25.169Z,1095
2017-09-04T15:33:34.030Z,1025
2017-09-04T15:34:42.892Z,1020
2017-09-04T15:35:51.953Z,1070
2017-09-04T15:37:00.814Z,1060
2017-09-04T15:38:09.674Z,1055
2017-09-04T15:39:18.542Z,1055
2017-09-04T15:40:27.398Z,1085
2017-09-04T15:41:36.410Z,1050
2017-09-04T15:42:45.275Z,1110
2017-09-04T15:43:54.138Z,1035
2017-09-04T15:45:02.999Z,840
2017-09-04T15:46:11.859Z,720
2017-09-04T15:47:20.869Z,690
2017-09-04T15:48:29.732Z,640
2017-09-04T15:49:38.590Z,655
2017-09-04T15:50:47.449Z,615
2017-09-04T15:51:56.309Z,755
2017-09-04T15:53:05.320Z,580
2017-09-04T15:54:14.508Z,745
2017-09-04T15:55:23.364Z,720
2017-09-04T15:56:32.226Z,840
2017-09-04T15:57:41.412Z,775
2017-09-04T15:58:51.620Z,895
2017-09-04T16:00:01.329Z,950
2017-09-04T16:01:10.186Z,915
2017-09-04T16:02:19.044Z,890
2017-09-04T16:03:27.921Z,915
2017-09-04T16:04:37.017Z,945
2017-09-04T16:05:45.870Z,1015
2017-09-04T16:06:54.823Z,985